createdAt,value
2023-02-06T00:01:47.991Z,3.01
2023-02-06T00:04:14.898Z,2.91
2023-02-06T00:06:41.954Z,2.91
2023-02-06T00:09:08.928Z,2.91
2023-02-06T00:11:35.359Z,2.84
2023-02-06T00:14:02.032Z,2.90
2023-02-06T00:16:31.456Z,2.90
2023-02-06T00:18:58.854Z,2.86
2023-02-06T00:21:26.331Z,2.90
2023-02-06T00:23:54.795Z,2.84
2023-02-06T00:26:22.067Z,2.80
2023-02-06T00:28:48.622Z,2.90
2023-02-06T00:31:15.861Z,2.92
2023-02-06T00:33:42.374Z,2.82
2023-02-06T00:36:09.085Z,2.91
2023-02-06T00:38:37.742Z,2.91
2023-02-06T00:41:04.633Z,2.97
2023-02-06T00:43:31.068Z,2.83
2023-02-06T00:45:58.346Z,2.91
2023-02-06T00:48:25.918Z,2.88
2023-02-06T00:50:53.514Z,2.75
2023-02-06T00:53:20.758Z,2.82
2023-02-06T00:55:47.178Z,2.84
2023-02-06T00:58:13.577Z,2.75
2023-02-06T01:00:39.937Z,2.73
2023-02-06T01:03:06.417Z,2.66
2023-02-06T01:05:32.946Z,2.74
2023-02-06T01:07:59.413Z,2.78
2023-02-06T01:10:25.801Z,2.77
2023-02-06T01:12:52.149Z,2.72
2023-02-06T01:15:18.580Z,2.61
2023-02-06T01:17:44.951Z,2.53
2023-02-06T01:20:13.645Z,2.56
2023-02-06T01:22:40.896Z,2.50
2023-02-06T01:25:07.962Z,2.50
2023-02-06T01:27:38.026Z,2.41
2023-02-06T01:30:06.347Z,2.43
2023-02-06T01:32:36.717Z,2.32
2023-02-06T01:35:03.113Z,2.32
2023-02-06T01:37:30.442Z,2.42
2023-02-06T01:39:56.823Z,2.30
2023-02-06T01:42:23.189Z,2.30
2023-02-06T01:44:49.561Z,2.42
2023-02-06T01:47:17.758Z,2.36
2023-02-06T01:49:50.556Z,2.32
2023-02-06T01:52:21.180Z,2.31
2023-02-06T01:54:53.198Z,2.35
2023-02-06T01:57:20.777Z,2.29
2023-02-06T01:59:52.294Z,2.30
2023-02-06T02:02:19.129Z,2.43
2023-02-06T02:04:45.941Z,2.34
2023-02-06T02:07:19.636Z,2.34
2023-02-06T02:09:46.038Z,2.26
2023-02-06T02:12:13.523Z,2.19
2023-02-06T02:14:42.445Z,2.26
2023-02-06T02:17:34.711Z,2.24
2023-02-06T02:20:16.014Z,2.25
2023-02-06T02:23:00.090Z,2.25
2023-02-06T02:25:57.790Z,2.23
2023-02-06T02:28:26.818Z,2.24
2023-02-06T02:31:15.132Z,2.21
2023-02-06T02:34:06.327Z,2.22
2023-02-06T02:36:43.922Z,2.23
2023-02-06T02:39:22.986Z,2.14
2023-02-06T02:42:06.158Z,2.27
2023-02-06T02:44:40.480Z,2.21
2023-02-06T02:47:12.237Z,2.18
2023-02-06T02:49:41.434Z,2.19
2023-02-06T02:52:07.781Z,2.09
2023-02-06T02:54:34.192Z,2.08
2023-02-06T02:57:06.528Z,2.10
2023-02-06T02:59:37.929Z,2.07
2023-02-06T03:02:15.364Z,2.19
2023-02-06T03:04:51.245Z,2.14
2023-02-06T03:07:38.836Z,2.17
2023-02-06T03:10:22.857Z,2.15
2023-02-06T03:12:56.897Z,2.13
2023-02-06T03:15:35.172Z,2.23
2023-02-06T03:18:06.848Z,2.14
2023-02-06T03:20:33.229Z,2.16
2023-02-06T03:23:02.048Z,2.13
2023-02-06T03:25:35.793Z,2.05
2023-02-06T03:28:04.918Z,2.12
2023-02-06T03:30:32.872Z,2.11
2023-02-06T03:33:06.040Z,2.04
2023-02-06T03:35:36.732Z,2.10
2023-02-06T03:38:06.435Z,2.08
2023-02-06T03:40:33.061Z,2.06
2023-02-06T03:43:02.736Z,2.08
2023-02-06T03:45:34.383Z,2.08
2023-02-06T03:48:15.415Z,2.00
2023-02-06T03:50:44.040Z,2.01
2023-02-06T03:53:13.065Z,2.00
2023-02-06T03:55:41.029Z,1.93
2023-02-06T03:58:13.365Z,1.92
2023-02-06T04:00:42.776Z,1.97
2023-02-06T04:03:11.051Z,1.97
2023-02-06T04:05:38.763Z,1.93
2023-02-06T04:08:05.575Z,1.84
2023-02-06T04:10:31.940Z,1.88
2023-02-06T04:12:58.299Z,1.97
2023-02-06T04:15:24.656Z,1.92
2023-02-06T04:18:00.047Z,1.90
2023-02-06T04:20:28.163Z,1.94
2023-02-06T04:22:54.549Z,1.91
2023-02-06T04:25:21.171Z,1.84
2023-02-06T04:27:47.551Z,1.83
2023-02-06T04:30:15.443Z,1.82
2023-02-06T04:32:41.815Z,1.84
2023-02-06T04:35:08.235Z,1.85
2023-02-06T04:37:34.613Z,1.84
2023-02-06T04:40:01.038Z,1.86
2023-02-06T04:42:27.440Z,1.82
2023-02-06T04:44:53.836Z,1.79
2023-02-06T04:47:20.208Z,1.73
2023-02-06T04:49:46.570Z,1.75
2023-02-06T04:52:12.911Z,1.81
2023-02-06T04:54:39.274Z,1.76
2023-02-06T04:57:05.624Z,1.73
2023-02-06T04:59:31.962Z,1.76
2023-02-06T05:01:58.314Z,1.72
2023-02-06T05:04:24.673Z,1.66
2023-02-06T05:06:51.050Z,1.65
2023-02-06T05:09:17.379Z,1.56
2023-02-06T05:11:43.794Z,1.54
2023-02-06T05:14:10.160Z,1.48
2023-02-06T05:16:36.514Z,1.48
2023-02-06T05:19:02.894Z,1.43
2023-02-06T05:21:29.261Z,1.35
2023-02-06T05:23:55.661Z,1.35
2023-02-06T05:26:22.043Z,1.26
2023-02-06T05:28:48.416Z,1.23
2023-02-06T05:31:19.618Z,1.24
2023-02-06T05:33:49.417Z,1.21
2023-02-06T05:36:17.943Z,1.31
2023-02-06T05:38:44.333Z,1.26
2023-02-06T05:41:10.699Z,1.12
2023-02-06T05:43:38.072Z,1.26
2023-02-06T05:46:04.688Z,1.18
2023-02-06T05:48:31.136Z,1.26
2023-02-06T05:50:58.200Z,1.18
2023-02-06T05:53:24.638Z,1.22
2023-02-06T05:55:51.051Z,1.21
2023-02-06T05:58:18.665Z,1.21
2023-02-06T06:00:45.362Z,1.13
2023-02-06T06:03:11.763Z,1.22
2023-02-06T06:05:38.353Z,1.19
2023-02-06T06:08:04.847Z,1.29
2023-02-06T06:10:31.193Z,1.11
2023-02-06T06:12:57.555Z,1.16
2023-02-06T06:15:23.905Z,1.14
2023-02-06T06:17:50.262Z,1.04
2023-02-06T06:20:16.924Z,1.05
2023-02-06T06:22:43.253Z,0.97
2023-02-06T06:25:09.621Z,0.99
2023-02-06T06:27:36.014Z,0.98
2023-02-06T06:30:02.394Z,0.84
2023-02-06T06:32:28.719Z,0.86
2023-02-06T06:34:55.068Z,0.86
2023-02-06T06:37:21.398Z,0.83
2023-02-06T06:39:47.741Z,0.82
2023-02-06T06:42:14.128Z,0.74
2023-02-06T06:44:40.474Z,0.65
2023-02-06T06:47:06.844Z,0.63
2023-02-06T06:49:33.444Z,0.54
2023-02-06T06:52:00.013Z,0.59
2023-02-06T06:54:26.410Z,0.54
2023-02-06T06:56:52.788Z,0.45
2023-02-06T06:59:19.214Z,0.47
2023-02-06T07:01:45.897Z,0.47
2023-02-06T07:04:12.275Z,0.50
2023-02-06T07:06:38.625Z,0.36
2023-02-06T07:09:06.077Z,0.35
2023-02-06T07:11:32.413Z,0.38
2023-02-06T07:13:58.773Z,0.30
2023-02-06T07:16:25.212Z,0.34
2023-02-06T07:18:51.626Z,0.30
2023-02-06T07:21:19.767Z,0.26
2023-02-06T07:23:46.270Z,0.23
2023-02-06T07:26:13.091Z,0.16
2023-02-06T07:28:39.685Z,0.19
2023-02-06T07:31:07.952Z,0.14
2023-02-06T07:33:34.991Z,0.17
2023-02-06T07:36:03.808Z,0.15
2023-02-06T07:38:30.897Z,0.03
2023-02-06T07:41:01.936Z,0.19
2023-02-06T07:43:28.720Z,0.17
2023-02-06T07:45:58.765Z,0.13
2023-02-06T07:48:25.136Z,0.20
2023-02-06T07:50:51.496Z,0.18
2023-02-06T07:53:17.826Z,0.39
2023-02-06T07:55:44.164Z,0.40
2023-02-06T07:58:13.426Z,0.36
2023-02-06T08:00:40.818Z,0.48
2023-02-06T08:03:08.070Z,0.63
2023-02-06T08:05:39.066Z,0.81
2023-02-06T08:08:06.758Z,0.90
2023-02-06T08:10:33.355Z,0.97
2023-02-06T08:12:59.773Z,1.01
2023-02-06T08:15:26.327Z,1.04
2023-02-06T08:17:52.855Z,1.03
2023-02-06T08:20:19.246Z,1.02
2023-02-06T08:22:46.550Z,0.98
2023-02-06T08:25:12.987Z,0.94
2023-02-06T08:27:39.395Z,0.93
2023-02-06T08:30:06.373Z,0.94
2023-02-06T08:32:34.948Z,0.94
2023-02-06T08:35:01.427Z,1.02
2023-02-06T08:37:27.832Z,1.01
2023-02-06T08:39:54.195Z,0.96
2023-02-06T08:42:20.529Z,0.95
2023-02-06T08:44:46.961Z,0.92
2023-02-06T08:47:13.433Z,0.91
2023-02-06T08:49:39.873Z,0.87
2023-02-06T08:52:06.301Z,0.92
2023-02-06T08:54:35.240Z,0.90
2023-02-06T08:57:03.142Z,0.96
2023-02-06T08:59:30.893Z,0.94
2023-02-06T09:01:57.247Z,1.01
2023-02-06T09:04:23.649Z,1.02
2023-02-06T09:06:50.148Z,1.06
2023-02-06T09:09:16.621Z,1.08
2023-02-06T09:11:43.081Z,1.11
2023-02-06T09:14:13.920Z,1.09
2023-02-06T09:16:40.560Z,1.14
2023-02-06T09:19:07.244Z,1.08
2023-02-06T09:21:35.632Z,1.11
2023-02-06T09:24:05.441Z,1.13
2023-02-06T09:26:44.802Z,1.05
2023-02-06T09:29:16.700Z,1.10
2023-02-06T09:31:43.227Z,1.12
2023-02-06T09:34:12.026Z,1.09
2023-02-06T09:36:38.381Z,1.10
2023-02-06T09:39:07.270Z,1.27
2023-02-06T09:41:44.431Z,1.23
2023-02-06T09:44:10.719Z,1.33
2023-02-06T09:46:49.361Z,1.26
2023-02-06T09:49:22.478Z,1.26
2023-02-06T09:52:30.182Z,1.33
2023-02-06T09:55:06.430Z,1.37
2023-02-06T09:58:06.842Z,1.37
2023-02-06T10:00:55.507Z,1.50
2023-02-06T10:03:51.622Z,1.62
2023-02-06T10:06:27.019Z,1.56
2023-02-06T10:09:16.474Z,1.63
2023-02-06T10:11:57.588Z,1.58
2023-02-06T10:14:40.774Z,1.58
2023-02-06T10:17:28.234Z,1.59
2023-02-06T10:20:13.336Z,1.64
2023-02-06T10:23:03.685Z,1.66
2023-02-06T10:25:37.831Z,1.68
2023-02-06T10:28:15.247Z,1.76
2023-02-06T10:30:56.642Z,1.83
2023-02-06T10:33:34.434Z,1.97
2023-02-06T10:36:22.689Z,1.93
2023-02-06T10:39:20.815Z,2.01
2023-02-06T10:42:18.010Z,2.03
2023-02-06T10:44:52.996Z,2.06
2023-02-06T10:47:42.303Z,2.15
2023-02-06T10:50:38.106Z,2.08
2023-02-06T10:53:14.578Z,2.10
2023-02-06T10:55:49.239Z,2.18
2023-02-06T10:58:21.790Z,2.31
2023-02-06T11:00:50.548Z,2.34
2023-02-06T11:03:20.628Z,2.31
2023-02-06T11:05:47.767Z,2.41
2023-02-06T11:08:28.118Z,2.47
2023-02-06T11:10:54.945Z,2.62
2023-02-06T11:13:28.703Z,2.70
2023-02-06T11:16:02.687Z,2.67
2023-02-06T11:18:49.335Z,2.66
2023-02-06T11:21:41.282Z,2.68
2023-02-06T11:24:13.150Z,2.60
2023-02-06T11:26:46.764Z,2.65
2023-02-06T11:29:20.237Z,2.70
2023-02-06T11:31:54.396Z,2.69
2023-02-06T11:34:31.218Z,2.67
2023-02-06T11:37:00.737Z,2.84
2023-02-06T11:39:38.707Z,2.92
2023-02-06T11:42:15.261Z,3.16
2023-02-06T11:44:44.054Z,3.44
2023-02-06T11:47:36.579Z,3.27
2023-02-06T11:50:13.089Z,3.25
2023-02-06T11:52:42.325Z,3.03
2023-02-06T11:55:29.821Z,3.13
2023-02-06T11:58:05.937Z,3.22
2023-02-06T12:00:32.792Z,3.13
2023-02-06T12:02:59.382Z,3.07
2023-02-06T12:05:29.749Z,3.12
2023-02-06T12:08:09.434Z,3.09
2023-02-06T12:10:40.478Z,2.97
2023-02-06T12:13:15.247Z,2.97
2023-02-06T12:15:48.202Z,2.93
2023-02-06T12:18:22.162Z,2.92
2023-02-06T12:21:03.542Z,2.93
2023-02-06T12:23:36.391Z,2.96
2023-02-06T12:26:08.290Z,3.13
2023-02-06T12:28:59.468Z,2.97
2023-02-06T12:31:39.678Z,2.88
2023-02-06T12:34:49.765Z,2.83
2023-02-06T12:37:26.201Z,2.76
2023-02-06T12:39:53.015Z,2.74
2023-02-06T12:42:28.279Z,2.86
2023-02-06T12:45:14.421Z,2.92
2023-02-06T12:47:53.613Z,3.01
2023-02-06T12:50:27.868Z,3.04
2023-02-06T12:53:20.371Z,3.01
2023-02-06T12:55:56.095Z,2.95
2023-02-06T12:58:49.274Z,2.89
2023-02-06T13:01:42.569Z,2.95
2023-02-06T13:04:17.702Z,2.96
2023-02-06T13:07:06.357Z,3.07
2023-02-06T13:09:46.871Z,3.02
2023-02-06T13:12:19.295Z,3.00
2023-02-06T13:14:52.284Z,3.03
2023-02-06T13:17:24.592Z,3.01
2023-02-06T13:20:13.292Z,3.08
2023-02-06T13:22:51.076Z,3.15
2023-02-06T13:25:29.532Z,3.13
2023-02-06T13:28:01.480Z,3.06
2023-02-06T13:30:31.023Z,3.12
2023-02-06T13:32:58.687Z,3.11
2023-02-06T13:35:28.440Z,3.07
2023-02-06T13:38:11.832Z,3.08
2023-02-06T13:40:38.580Z,3.11
2023-02-06T13:43:08.532Z,3.23
2023-02-06T13:45:42.331Z,3.09
2023-02-06T13:48:38.231Z,3.08
2023-02-06T13:51:10.401Z,3.17
2023-02-06T13:53:50.771Z,3.12
2023-02-06T13:56:39.101Z,3.16
2023-02-06T13:59:21.647Z,3.22
2023-02-06T14:01:48.108Z,3.22
2023-02-06T14:04:25.122Z,3.21
2023-02-06T14:07:16.631Z,3.31
2023-02-06T14:10:15.121Z,3.28
2023-02-06T14:13:08.112Z,3.19
2023-02-06T14:15:46.899Z,3.18
2023-02-06T14:18:32.358Z,3.20
2023-02-06T14:21:17.580Z,3.30
2023-02-06T14:23:59.105Z,3.22
2023-02-06T14:26:33.633Z,3.25
2023-02-06T14:29:46.826Z,3.35
2023-02-06T14:32:34.443Z,3.34
2023-02-06T14:35:00.787Z,3.31
2023-02-06T14:38:12.775Z,3.23
2023-02-06T14:40:42.641Z,3.15
2023-02-06T14:43:24.639Z,3.06
2023-02-06T14:46:07.551Z,3.08
2023-02-06T14:48:49.060Z,2.95
2023-02-06T14:51:25.146Z,2.94
2023-02-06T14:53:57.770Z,3.09
2023-02-06T14:56:28.261Z,3.02
2023-02-06T14:58:54.969Z,3.05
2023-02-06T15:01:26.723Z,2.96
2023-02-06T15:04:27.494Z,3.01
2023-02-06T15:07:02.904Z,2.98
2023-02-06T15:09:33.626Z,3.08
2023-02-06T15:12:02.792Z,2.94
2023-02-06T15:14:33.157Z,3.08
2023-02-06T15:17:00.929Z,3.02
2023-02-06T15:19:30.341Z,3.08
2023-02-06T15:22:02.626Z,2.91
2023-02-06T15:24:28.931Z,3.00
2023-02-06T15:27:21.282Z,3.02
2023-02-06T15:29:51.808Z,2.94
2023-02-06T15:32:32.080Z,2.77
2023-02-06T15:35:00.262Z,2.80
2023-02-06T15:37:35.340Z,2.85
2023-02-06T15:40:08.822Z,2.93
2023-02-06T15:42:36.504Z,2.96
2023-02-06T15:45:03.565Z,2.89
2023-02-06T15:47:30.381Z,2.91
2023-02-06T15:50:00.264Z,2.88
2023-02-06T15:52:41.739Z,2.91
2023-02-06T15:55:23.095Z,2.85
2023-02-06T15:57:50.189Z,2.80
2023-02-06T16:00:24.770Z,2.74
2023-02-06T16:02:53.060Z,2.69
2023-02-06T16:05:25.828Z,2.60
2023-02-06T16:07:52.663Z,2.55
2023-02-06T16:10:25.868Z,2.47
2023-02-06T16:12:55.185Z,2.45
2023-02-06T16:15:36.962Z,2.47
2023-02-06T16:18:26.658Z,2.51
2023-02-06T16:21:15.772Z,2.46
2023-02-06T16:24:12.793Z,2.36
2023-02-06T16:26:48.637Z,2.35
2023-02-06T16:29:25.534Z,2.29
2023-02-06T16:32:16.225Z,2.30
2023-02-06T16:34:45.434Z,2.24
2023-02-06T16:37:17.653Z,2.14
2023-02-06T16:39:45.433Z,2.14
2023-02-06T16:42:18.650Z,2.26
2023-02-06T16:44:49.683Z,2.23
2023-02-06T16:47:18.886Z,2.07
2023-02-06T16:49:48.176Z,2.02
2023-02-06T16:52:19.207Z,1.96
2023-02-06T16:54:46.463Z,1.91
2023-02-06T16:57:43.287Z,1.93
2023-02-06T17:00:26.028Z,1.89
2023-02-06T17:02:53.222Z,1.84
2023-02-06T17:05:25.754Z,1.69
2023-02-06T17:07:53.330Z,1.73
2023-02-06T17:10:24.647Z,1.66
2023-02-06T17:12:51.100Z,1.58
2023-02-06T17:15:19.067Z,1.50
2023-02-06T17:17:46.300Z,1.43
2023-02-06T17:20:21.041Z,1.40
2023-02-06T17:22:49.882Z,1.34
2023-02-06T17:25:17.203Z,1.37
2023-02-06T17:27:43.550Z,1.24
2023-02-06T17:30:17.474Z,1.25
2023-02-06T17:32:43.844Z,1.20
2023-02-06T17:35:10.413Z,1.16
2023-02-06T17:37:36.785Z,1.18
2023-02-06T17:40:04.022Z,1.10
2023-02-06T17:42:32.526Z,1.05
2023-02-06T17:44:59.211Z,1.06
2023-02-06T17:47:26.081Z,1.08
2023-02-06T17:49:52.775Z,1.16
2023-02-06T17:52:19.235Z,1.16
2023-02-06T17:54:45.629Z,1.02
2023-02-06T17:57:13.518Z,1.09
2023-02-06T17:59:39.868Z,1.07
2023-02-06T18:02:06.549Z,0.99
2023-02-06T18:04:32.944Z,0.95
2023-02-06T18:06:59.275Z,0.83
2023-02-06T18:09:25.637Z,0.74
2023-02-06T18:11:51.974Z,0.76
2023-02-06T18:14:18.317Z,0.57
2023-02-06T18:16:45.480Z,0.44
2023-02-06T18:19:11.910Z,0.44
2023-02-06T18:21:38.417Z,0.31
2023-02-06T18:24:05.369Z,0.19
2023-02-06T18:26:31.990Z,0.19
2023-02-06T18:28:58.353Z,0.07
2023-02-06T18:31:35.556Z,0.20
2023-02-06T18:34:04.750Z,0.05
2023-02-06T18:36:31.119Z,0.00
2023-02-06T18:38:57.595Z,-0.09
2023-02-06T18:41:42.686Z,-0.12
2023-02-06T18:44:10.350Z,-0.10
2023-02-06T18:46:37.884Z,-0.14
2023-02-06T18:49:05.095Z,-0.01
2023-02-06T18:51:31.976Z,-0.08
2023-02-06T18:53:59.560Z,0.15
2023-02-06T18:56:26.256Z,0.20
2023-02-06T18:58:52.646Z,0.17
2023-02-06T19:01:21.220Z,0.22
2023-02-06T19:03:48.906Z,0.28
2023-02-06T19:06:24.751Z,0.28
2023-02-06T19:08:51.548Z,0.30
2023-02-06T19:11:17.982Z,0.21
2023-02-06T19:13:45.033Z,0.23
2023-02-06T19:16:14.124Z,0.30
2023-02-06T19:18:43.807Z,0.36
2023-02-06T19:21:12.739Z,0.40
2023-02-06T19:23:39.466Z,0.40
2023-02-06T19:26:10.759Z,0.31
2023-02-06T19:28:39.045Z,0.31
2023-02-06T19:31:06.770Z,0.33
2023-02-06T19:33:35.590Z,0.22
2023-02-06T19:36:09.098Z,0.22
2023-02-06T19:38:35.633Z,0.17
2023-02-06T19:41:18.376Z,0.10
2023-02-06T19:43:44.805Z,0.20
2023-02-06T19:46:15.328Z,0.16
2023-02-06T19:48:43.825Z,0.18
2023-02-06T19:51:22.518Z,0.24
2023-02-06T19:53:50.606Z,0.21
2023-02-06T19:56:26.191Z,0.13
2023-02-06T19:58:59.781Z,0.04
2023-02-06T20:01:29.032Z,-0.01
2023-02-06T20:03:56.762Z,-0.03
2023-02-06T20:06:23.293Z,-0.12
2023-02-06T20:08:50.067Z,-0.20
2023-02-06T20:11:21.538Z,-0.40
2023-02-06T20:13:51.908Z,-0.32
2023-02-06T20:16:21.232Z,-0.40
2023-02-06T20:18:47.800Z,-0.49
2023-02-06T20:21:22.938Z,-0.54
2023-02-06T20:23:49.908Z,-0.61
2023-02-06T20:26:21.207Z,-0.69
2023-02-06T20:28:47.857Z,-0.85
2023-02-06T20:31:14.465Z,-0.82
2023-02-06T20:33:41.372Z,-0.79
2023-02-06T20:36:09.664Z,-0.80
2023-02-06T20:38:36.650Z,-0.87
2023-02-06T20:41:04.443Z,-0.93
2023-02-06T20:43:31.253Z,-0.98
2023-02-06T20:45:57.615Z,-0.89
2023-02-06T20:48:24.212Z,-0.75
2023-02-06T20:50:57.211Z,-0.80
2023-02-06T20:53:23.830Z,-0.80
2023-02-06T20:55:50.344Z,-0.75
2023-02-06T20:58:16.694Z,-0.66
2023-02-06T21:00:43.176Z,-0.58
2023-02-06T21:03:09.527Z,-0.54
2023-02-06T21:05:36.044Z,-0.38
2023-02-06T21:08:04.321Z,-0.30
2023-02-06T21:10:30.923Z,-0.37
2023-02-06T21:12:57.249Z,-0.32
2023-02-06T21:15:23.854Z,-0.34
2023-02-06T21:17:50.235Z,-0.48
2023-02-06T21:20:16.840Z,-0.40
2023-02-06T21:22:43.390Z,-0.47
2023-02-06T21:25:09.954Z,-0.52
2023-02-06T21:27:37.505Z,-0.60
2023-02-06T21:30:05.074Z,-0.51
2023-02-06T21:32:31.424Z,-0.52
2023-02-06T21:34:57.889Z,-0.56
2023-02-06T21:37:24.213Z,-0.58
2023-02-06T21:39:50.604Z,-0.67
2023-02-06T21:42:19.155Z,-0.70
2023-02-06T21:44:45.564Z,-0.73
2023-02-06T21:47:11.906Z,-0.75
2023-02-06T21:49:38.314Z,-0.80
2023-02-06T21:52:04.777Z,-0.84
2023-02-06T21:54:31.390Z,-0.86
2023-02-06T21:56:58.551Z,-0.87
2023-02-06T21:59:24.923Z,-1.01
2023-02-06T22:01:51.460Z,-1.02
2023-02-06T22:04:17.901Z,-0.91
2023-02-06T22:06:44.269Z,-0.96
2023-02-06T22:09:15.155Z,-1.02
2023-02-06T22:11:42.282Z,-1.19
2023-02-06T22:14:15.207Z,-1.19
2023-02-06T22:16:42.011Z,-1.20
2023-02-06T22:19:10.406Z,-1.08
2023-02-06T22:21:36.883Z,-1.10
2023-02-06T22:24:06.356Z,-1.08
2023-02-06T22:26:36.749Z,-1.07
2023-02-06T22:29:03.201Z,-1.22
2023-02-06T22:31:31.804Z,-1.20
2023-02-06T22:34:00.118Z,-1.12
2023-02-06T22:36:31.233Z,-1.12
2023-02-06T22:39:06.405Z,-1.24
2023-02-06T22:41:34.280Z,-1.10
2023-02-06T22:44:00.902Z,-0.95
2023-02-06T22:46:30.397Z,-1.05
2023-02-06T22:48:57.119Z,-0.96
2023-02-06T22:51:23.962Z,-0.95
2023-02-06T22:53:50.921Z,-0.91
2023-02-06T22:56:31.039Z,-0.85
2023-02-06T22:59:04.658Z,-0.74
2023-02-06T23:01:38.690Z,-0.73
2023-02-06T23:04:07.117Z,-0.68
2023-02-06T23:06:35.195Z,-0.61
2023-02-06T23:09:04.185Z,-0.53
2023-02-06T23:11:31.839Z,-0.49
2023-02-06T23:14:00.828Z,-0.46
2023-02-06T23:16:28.853Z,-0.53
2023-02-06T23:18:55.409Z,-0.45
2023-02-06T23:21:23.276Z,-0.48
2023-02-06T23:23:49.978Z,-0.39
2023-02-06T23:26:19.425Z,-0.45
2023-02-06T23:28:45.812Z,-0.36
2023-02-06T23:31:12.837Z,-0.30
2023-02-06T23:33:39.416Z,-0.30
2023-02-06T23:36:15.177Z,-0.34
2023-02-06T23:38:42.795Z,-0.30
2023-02-06T23:41:14.000Z,-0.31
2023-02-06T23:43:41.033Z,-0.29
2023-02-06T23:46:11.681Z,-0.32
2023-02-06T23:48:38.982Z,-0.46
2023-02-06T23:51:05.510Z,-0.43
2023-02-06T23:53:32.157Z,-0.33
2023-02-06T23:55:58.573Z,-0.39
2023-02-06T23:58:25.171Z,-0.38
